createdAt,value
2018-09-10T00:00:03.305Z,14.9
2018-09-10T00:00:07.500Z,14.9
2018-09-10T00:00:11.586Z,14.9
2018-09-10T00:00:15.790Z,14.9
2018-09-10T00:00:19.984Z,14.89
2018-09-10T00:00:24.286Z,14.89
2018-09-10T00:00:28.414Z,14.89
2018-09-10T00:00:32.394Z,14.88
2018-09-10T00:00:36.592Z,14.89
2018-09-10T00:00:40.798Z,14.9
2018-09-10T00:00:44.996Z,14.88
2018-09-10T00:00:49.099Z,14.88
2018-09-10T00:00:53.293Z,14.88
2018-09-10T00:00:57.389Z,14.87
2018-09-10T00:01:01.590Z,14.87
2018-09-10T00:01:05.571Z,14.88
2018-09-10T00:01:09.670Z,14.87
2018-09-10T00:01:13.758Z,14.88
2018-09-10T00:01:17.962Z,14.87
2018-09-10T00:01:22.054Z,14.87
2018-09-10T00:01:25.934Z,14.86
2018-09-10T00:01:30.246Z,14.87
2018-09-10T00:01:34.552Z,14.86
2018-09-10T00:01:38.648Z,14.87
2018-09-10T00:01:42.843Z,14.86
2018-09-10T00:01:47.142Z,14.85
2018-09-10T00:01:51.333Z,14.85
2018-09-10T00:01:55.525Z,14.85
2018-09-10T00:01:59.723Z,14.85
2018-09-10T00:02:03.817Z,14.85
2018-09-10T00:02:07.697Z,14.85
2018-09-10T00:02:11.998Z,14.84
2018-09-10T00:02:16.361Z,14.85
2018-09-10T00:02:20.663Z,14.85
2018-09-10T00:02:24.756Z,14.84
2018-09-10T00:02:28.954Z,14.84
2018-09-10T00:02:33.152Z,14.84
2018-09-10T00:02:37.347Z,14.84
2018-09-10T00:02:41.329Z,14.84
2018-09-10T00:02:45.523Z,14.83
2018-09-10T00:02:49.615Z,14.85
2018-09-10T00:02:53.919Z,14.84
2018-09-10T00:02:58.006Z,14.84
2018-09-10T00:03:02.203Z,14.84
2018-09-10T00:03:06.296Z,14.84
2018-09-10T00:03:10.387Z,14.83
2018-09-10T00:03:14.584Z,14.83
2018-09-10T00:03:18.781Z,14.84
2018-09-10T00:03:23.088Z,14.83
2018-09-10T00:03:27.390Z,14.83
2018-09-10T00:03:31.378Z,14.82
2018-09-10T00:03:35.572Z,14.82
2018-09-10T00:03:39.882Z,14.82
2018-09-10T00:03:43.977Z,14.82
2018-09-10T00:03:48.276Z,14.82
2018-09-10T00:03:52.381Z,14.82
2018-09-10T00:03:56.582Z,14.82
2018-09-10T00:04:00.779Z,14.82
2018-09-10T00:04:04.877Z,14.81
2018-09-10T00:04:09.238Z,14.82
2018-09-10T00:04:13.550Z,14.82
2018-09-10T00:04:17.642Z,14.82
2018-09-10T00:04:21.733Z,14.81
2018-09-10T00:04:25.714Z,14.82
2018-09-10T00:04:29.696Z,14.81
2018-09-10T00:04:33.782Z,14.81
2018-09-10T00:04:37.666Z,14.81
2018-09-10T00:04:41.749Z,14.82
2018-09-10T00:04:45.963Z,14.82
2018-09-10T00:04:50.050Z,14.81
2018-09-10T00:04:54.349Z,14.81
2018-09-10T00:04:58.567Z,14.81
2018-09-10T00:05:02.756Z,14.81
2018-09-10T00:05:06.952Z,14.81
2018-09-10T00:05:11.257Z,14.81
2018-09-10T00:05:15.448Z,14.8
2018-09-10T00:05:19.751Z,14.8
2018-09-10T00:05:23.842Z,14.81
2018-09-10T00:05:28.138Z,14.8
2018-09-10T00:05:32.219Z,14.8
2018-09-10T00:05:36.309Z,14.81
2018-09-10T00:05:40.501Z,14.81
2018-09-10T00:05:44.693Z,14.8
2018-09-10T00:05:48.786Z,14.8
2018-09-10T00:05:52.872Z,14.81
2018-09-10T00:05:57.065Z,14.8
2018-09-10T00:06:01.154Z,14.8
2018-09-10T00:06:05.183Z,14.8
2018-09-10T00:06:09.163Z,14.8
2018-09-10T00:06:13.373Z,14.8
2018-09-10T00:06:17.573Z,14.8
2018-09-10T00:06:21.875Z,14.8
2018-09-10T00:06:26.071Z,14.8
2018-09-10T00:06:30.156Z,14.8
2018-09-10T00:06:34.239Z,14.8
2018-09-10T00:06:38.431Z,14.8
2018-09-10T00:06:42.627Z,14.8
2018-09-10T00:06:46.833Z,14.8
2018-09-10T00:06:51.028Z,14.8
2018-09-10T00:06:55.116Z,14.8
2018-09-10T00:06:59.204Z,14.79
2018-09-10T00:07:03.396Z,14.79
2018-09-10T00:07:07.498Z,14.79
2018-09-10T00:07:11.482Z,14.8
2018-09-10T00:07:15.792Z,14.79
2018-09-10T00:07:19.889Z,14.8
2018-09-10T00:07:24.194Z,14.8
2018-09-10T00:07:28.488Z,14.8
2018-09-10T00:07:32.784Z,14.79
2018-09-10T00:07:36.779Z,14.79
2018-09-10T00:07:40.968Z,14.8
2018-09-10T00:07:45.161Z,14.79
2018-09-10T00:07:49.141Z,14.79
2018-09-10T00:07:53.334Z,14.78
2018-09-10T00:07:57.640Z,14.79
2018-09-10T00:08:01.834Z,14.79
2018-09-10T00:08:05.607Z,14.79
2018-09-10T00:08:09.694Z,14.79
2018-09-10T00:08:13.997Z,14.78
2018-09-10T00:08:18.194Z,14.79
2018-09-10T00:08:22.523Z,14.79
2018-09-10T00:08:26.718Z,14.79
2018-09-10T00:08:31.017Z,14.78
2018-09-10T00:08:35.103Z,14.79
2018-09-10T00:08:39.405Z,14.79
2018-09-10T00:08:43.492Z,14.79
2018-09-10T00:08:47.690Z,14.79
2018-09-10T00:08:51.784Z,14.78
2018-09-10T00:08:56.079Z,14.78
2018-09-10T00:09:00.291Z,14.79
2018-09-10T00:09:04.382Z,14.79
2018-09-10T00:09:08.573Z,14.78
2018-09-10T00:09:12.656Z,14.79
2018-09-10T00:09:16.425Z,14.78
2018-09-10T00:09:20.512Z,14.78
2018-09-10T00:09:24.712Z,14.78
2018-09-10T00:09:28.820Z,14.78
2018-09-10T00:09:33.027Z,14.78
2018-09-10T00:09:37.218Z,14.79
2018-09-10T00:09:41.310Z,14.78
2018-09-10T00:09:45.289Z,14.77
2018-09-10T00:09:49.588Z,14.78
2018-09-10T00:09:53.792Z,14.78
2018-09-10T00:09:57.874Z,14.77
2018-09-10T00:10:02.128Z,14.77
2018-09-10T00:10:06.105Z,14.78
2018-09-10T00:10:10.205Z,14.78
2018-09-10T00:10:14.399Z,14.77
2018-09-10T00:10:18.596Z,14.77
2018-09-10T00:10:22.687Z,14.78
2018-09-10T00:10:26.880Z,14.78
2018-09-10T00:10:31.075Z,14.78
2018-09-10T00:10:35.264Z,14.77
2018-09-10T00:10:39.438Z,14.77
2018-09-10T00:10:43.642Z,14.77
2018-09-10T00:10:47.844Z,14.77
2018-09-10T00:10:51.950Z,14.77
2018-09-10T00:10:56.036Z,14.77
2018-09-10T00:11:00.124Z,14.76
2018-09-10T00:11:04.213Z,14.77
2018-09-10T00:11:08.416Z,14.77
2018-09-10T00:11:12.617Z,14.76
2018-09-10T00:11:16.709Z,14.76
2018-09-10T00:11:20.915Z,14.77
2018-09-10T00:11:25.216Z,14.76
2018-09-10T00:11:29.204Z,14.77
2018-09-10T00:11:33.404Z,14.76
2018-09-10T00:11:37.493Z,14.76
2018-09-10T00:11:41.689Z,14.76
2018-09-10T00:11:46.006Z,14.76
2018-09-10T00:11:50.312Z,14.76
2018-09-10T00:11:54.300Z,14.76
2018-09-10T00:11:58.496Z,14.76
2018-09-10T00:12:02.579Z,14.76
2018-09-10T00:12:06.778Z,14.76
2018-09-10T00:12:10.762Z,14.76
2018-09-10T00:12:14.959Z,14.75
2018-09-10T00:12:19.043Z,14.75
2018-09-10T00:12:23.135Z,14.75
2018-09-10T00:12:27.347Z,14.74
2018-09-10T00:12:31.346Z,14.75
2018-09-10T00:12:35.442Z,14.74
2018-09-10T00:12:39.742Z,14.73
2018-09-10T00:12:44.050Z,14.74
2018-09-10T00:12:48.258Z,14.74
2018-09-10T00:12:52.563Z,14.74
2018-09-10T00:12:56.760Z,14.73
2018-09-10T00:13:00.851Z,14.73
2018-09-10T00:13:05.046Z,14.73
2018-09-10T00:13:09.146Z,14.73
2018-09-10T00:13:13.449Z,14.73
2018-09-10T00:13:17.757Z,14.73
2018-09-10T00:13:21.949Z,14.74
2018-09-10T00:13:26.150Z,14.73
2018-09-10T00:13:30.238Z,14.73
2018-09-10T00:13:34.543Z,14.73
2018-09-10T00:13:38.843Z,14.74
2018-09-10T00:13:42.932Z,14.73
2018-09-10T00:13:47.133Z,14.72
2018-09-10T00:13:51.016Z,14.72
2018-09-10T00:13:54.997Z,14.71
2018-09-10T00:13:59.194Z,14.73
2018-09-10T00:14:03.285Z,14.72
2018-09-10T00:14:07.382Z,14.73
2018-09-10T00:14:11.690Z,14.73
2018-09-10T00:14:15.782Z,14.71
2018-09-10T00:14:20.083Z,14.72
2018-09-10T00:14:24.178Z,14.72
2018-09-10T00:14:28.284Z,14.72
2018-09-10T00:14:32.480Z,14.72
2018-09-10T00:14:36.464Z,14.71
2018-09-10T00:14:40.450Z,14.71
2018-09-10T00:14:44.435Z,14.71
2018-09-10T00:14:48.624Z,14.72
2018-09-10T00:14:52.930Z,14.71
2018-09-10T00:14:57.122Z,14.71
2018-09-10T00:15:01.210Z,14.71
2018-09-10T00:15:05.300Z,14.71
2018-09-10T00:15:09.504Z,14.71
2018-09-10T00:15:13.694Z,14.7
2018-09-10T00:15:17.780Z,14.7
2018-09-10T00:15:21.979Z,14.7
2018-09-10T00:15:26.286Z,14.7
2018-09-10T00:15:30.600Z,14.7
2018-09-10T00:15:34.811Z,14.7
2018-09-10T00:15:38.899Z,14.7
2018-09-10T00:15:43.095Z,14.69
2018-09-10T00:15:47.072Z,14.69
2018-09-10T00:15:51.272Z,14.69
2018-09-10T00:15:55.467Z,14.69
2018-09-10T00:15:59.560Z,14.69
2018-09-10T00:16:03.754Z,14.69
2018-09-10T00:16:07.734Z,14.68
2018-09-10T00:16:11.853Z,14.68
2018-09-10T00:16:16.058Z,14.69
2018-09-10T00:16:20.144Z,14.69
2018-09-10T00:16:24.234Z,14.69
2018-09-10T00:16:28.426Z,14.69
2018-09-10T00:16:32.631Z,14.68
2018-09-10T00:16:36.730Z,14.68
2018-09-10T00:16:40.926Z,14.68
2018-09-10T00:16:45.122Z,14.67
2018-09-10T00:16:49.432Z,14.68
2018-09-10T00:16:53.632Z,14.68
2018-09-10T00:16:57.830Z,14.67
2018-09-10T00:17:02.087Z,14.68
2018-09-10T00:17:06.183Z,14.67
2018-09-10T00:17:10.166Z,14.67
2018-09-10T00:17:14.260Z,14.67
2018-09-10T00:17:18.245Z,14.66
2018-09-10T00:17:22.547Z,14.67
2018-09-10T00:17:26.856Z,14.67
2018-09-10T00:17:30.842Z,14.66
2018-09-10T00:17:35.039Z,14.67
2018-09-10T00:17:39.231Z,14.66
2018-09-10T00:17:43.335Z,14.66
2018-09-10T00:17:47.539Z,14.66
2018-09-10T00:17:51.627Z,14.66
2018-09-10T00:17:55.615Z,14.66
2018-09-10T00:17:59.710Z,14.66
2018-09-10T00:18:03.797Z,14.66
2018-09-10T00:18:07.891Z,14.65
2018-09-10T00:18:12.193Z,14.66
2018-09-10T00:18:16.387Z,14.65
2018-09-10T00:18:20.592Z,14.65
2018-09-10T00:18:24.794Z,14.65
2018-09-10T00:18:28.987Z,14.66
2018-09-10T00:18:33.072Z,14.65
2018-09-10T00:18:37.274Z,14.65
2018-09-10T00:18:41.572Z,14.64
2018-09-10T00:18:45.874Z,14.65
2018-09-10T00:18:49.852Z,14.65
2018-09-10T00:18:53.835Z,14.65
2018-09-10T00:18:57.818Z,14.64
2018-09-10T00:19:01.905Z,14.64
2018-09-10T00:19:06.227Z,14.63
2018-09-10T00:19:10.322Z,14.64
2018-09-10T00:19:14.626Z,14.64
2018-09-10T00:19:18.820Z,14.64
2018-09-10T00:19:22.910Z,14.63
2018-09-10T00:19:27.002Z,14.64
2018-09-10T00:19:31.195Z,14.63
2018-09-10T00:19:35.178Z,14.63
2018-09-10T00:19:39.373Z,14.63
2018-09-10T00:19:43.671Z,14.64
2018-09-10T00:19:47.769Z,14.63
2018-09-10T00:19:51.750Z,14.64
2018-09-10T00:19:55.839Z,14.63
2018-09-10T00:20:00.065Z,14.62
2018-09-10T00:20:04.269Z,14.62
2018-09-10T00:20:08.145Z,14.62
2018-09-10T00:20:12.339Z,14.62
2018-09-10T00:20:16.531Z,14.61
2018-09-10T00:20:20.513Z,14.62
2018-09-10T00:20:24.606Z,14.62
2018-09-10T00:20:28.811Z,14.61
2018-09-10T00:20:33.004Z,14.61
2018-09-10T00:20:37.202Z,14.61
2018-09-10T00:20:41.509Z,14.61
2018-09-10T00:20:45.595Z,14.62
2018-09-10T00:20:49.690Z,14.61
2018-09-10T00:20:53.671Z,14.6
2018-09-10T00:20:57.759Z,14.61
2018-09-10T00:21:02.061Z,14.61
2018-09-10T00:21:06.147Z,14.61
2018-09-10T00:21:10.450Z,14.6
2018-09-10T00:21:14.539Z,14.6
2018-09-10T00:21:18.839Z,14.6
2018-09-10T00:21:22.937Z,14.59
2018-09-10T00:21:27.251Z,14.6
2018-09-10T00:21:31.454Z,14.6
2018-09-10T00:21:35.648Z,14.6
2018-09-10T00:21:39.844Z,14.59
2018-09-10T00:21:43.940Z,14.59
2018-09-10T00:21:48.170Z,14.59
2018-09-10T00:21:52.481Z,14.59
2018-09-10T00:21:56.783Z,14.58
2018-09-10T00:22:01.135Z,14.58
2018-09-10T00:22:05.437Z,14.58
2018-09-10T00:22:09.629Z,14.58
2018-09-10T00:22:13.939Z,14.57
2018-09-10T00:22:18.145Z,14.57
2018-09-10T00:22:22.446Z,14.57
2018-09-10T00:22:26.644Z,14.56
2018-09-10T00:22:30.953Z,14.56
2018-09-10T00:22:35.148Z,14.58
2018-09-10T00:22:39.451Z,14.57
2018-09-10T00:22:43.653Z,14.57
2018-09-10T00:22:47.858Z,14.57
2018-09-10T00:22:52.056Z,14.56
2018-09-10T00:22:56.043Z,14.56
2018-09-10T00:23:00.244Z,14.56
2018-09-10T00:23:04.339Z,14.56
2018-09-10T00:23:08.447Z,14.56
2018-09-10T00:23:12.539Z,14.55
2018-09-10T00:23:16.629Z,14.56
2018-09-10T00:23:20.824Z,14.56
2018-09-10T00:23:25.027Z,14.55
2018-09-10T00:23:29.385Z,14.55
2018-09-10T00:23:33.580Z,14.55
2018-09-10T00:23:37.784Z,14.55
2018-09-10T00:23:41.870Z,14.55
2018-09-10T00:23:46.068Z,14.54
2018-09-10T00:23:50.378Z,14.55
2018-09-10T00:23:54.465Z,14.55
2018-09-10T00:23:58.665Z,14.53
2018-09-10T00:24:02.757Z,14.55
2018-09-10T00:24:06.860Z,14.54
2018-09-10T00:24:10.950Z,14.53
2018-09-10T00:24:15.251Z,14.54
2018-09-10T00:24:19.441Z,14.54
2018-09-10T00:24:23.652Z,14.54
2018-09-10T00:24:27.536Z,14.53
2018-09-10T00:24:31.728Z,14.54
2018-09-10T00:24:35.812Z,14.53
2018-09-10T00:24:40.006Z,14.53
2018-09-10T00:24:44.310Z,14.53
2018-09-10T00:24:48.507Z,14.54
2018-09-10T00:24:52.705Z,14.53
2018-09-10T00:24:56.900Z,14.53
2018-09-10T00:25:01.100Z,14.52
2018-09-10T00:25:05.085Z,14.52
2018-09-10T00:25:09.279Z,14.52
2018-09-10T00:25:13.262Z,14.52
2018-09-10T00:25:17.349Z,14.52
2018-09-10T00:25:21.544Z,14.52
2018-09-10T00:25:25.638Z,14.52
2018-09-10T00:25:29.841Z,14.52
2018-09-10T00:25:34.034Z,14.53
2018-09-10T00:25:38.341Z,14.52
2018-09-10T00:25:42.426Z,14.52
2018-09-10T00:25:46.622Z,14.51
2018-09-10T00:25:50.813Z,14.51
2018-09-10T00:25:55.112Z,14.51
2018-09-10T00:25:59.197Z,14.51
2018-09-10T00:26:03.393Z,14.51
2018-09-10T00:26:07.478Z,14.51
2018-09-10T00:26:11.560Z,14.5
2018-09-10T00:26:15.654Z,14.51
2018-09-10T00:26:19.736Z,14.5
2018-09-10T00:26:23.988Z,14.49
2018-09-10T00:26:28.289Z,14.5
2018-09-10T00:26:32.374Z,14.5
2018-09-10T00:26:36.478Z,14.5
2018-09-10T00:26:40.777Z,14.5
2018-09-10T00:26:44.977Z,14.5
2018-09-10T00:26:49.179Z,14.49
2018-09-10T00:26:53.267Z,14.5
2018-09-10T00:26:57.355Z,14.49
2018-09-10T00:27:01.546Z,14.49
2018-09-10T00:27:05.736Z,14.49
2018-09-10T00:27:09.716Z,14.49
2018-09-10T00:27:13.910Z,14.48
2018-09-10T00:27:18.103Z,14.48
2018-09-10T00:27:22.403Z,14.48
2018-09-10T00:27:26.489Z,14.48
2018-09-10T00:27:30.801Z,14.48
2018-09-10T00:27:34.999Z,14.48
2018-09-10T00:27:39.201Z,14.47
2018-09-10T00:27:43.394Z,14.48
2018-09-10T00:27:47.587Z,14.46
2018-09-10T00:27:51.898Z,14.46
2018-09-10T00:27:56.200Z,14.48
2018-09-10T00:28:00.301Z,14.46
2018-09-10T00:28:04.390Z,14.46
2018-09-10T00:28:08.578Z,14.46
2018-09-10T00:28:12.874Z,14.46
2018-09-10T00:28:17.178Z,14.47
2018-09-10T00:28:21.483Z,14.46
2018-09-10T00:28:25.673Z,14.46
2018-09-10T00:28:29.870Z,14.46
2018-09-10T00:28:34.066Z,14.45
2018-09-10T00:28:38.364Z,14.46
2018-09-10T00:28:42.662Z,14.44
2018-09-10T00:28:46.964Z,14.45
2018-09-10T00:28:51.056Z,14.45
2018-09-10T00:28:55.255Z,14.45
2018-09-10T00:28:59.349Z,14.44
2018-09-10T00:29:03.332Z,14.44
2018-09-10T00:29:07.530Z,14.44
2018-09-10T00:29:11.626Z,14.44
2018-09-10T00:29:15.816Z,14.44
2018-09-10T00:29:20.119Z,14.43
2018-09-10T00:29:24.419Z,14.44
2018-09-10T00:29:28.292Z,14.43
2018-09-10T00:29:32.589Z,14.43
2018-09-10T00:29:36.784Z,14.44
2018-09-10T00:29:40.877Z,14.43
2018-09-10T00:29:45.070Z,14.42
2018-09-10T00:29:49.262Z,14.42
2018-09-10T00:29:53.564Z,14.41
2018-09-10T00:29:57.652Z,14.41
2018-09-10T00:30:01.736Z,14.42
2018-09-10T00:30:06.029Z,14.41
2018-09-10T00:30:10.335Z,14.41
2018-09-10T00:30:14.648Z,14.41
2018-09-10T00:30:18.948Z,14.41
2018-09-10T00:30:23.143Z,14.41
2018-09-10T00:30:27.335Z,14.41
2018-09-10T00:30:31.533Z,14.41
2018-09-10T00:30:35.737Z,14.4
2018-09-10T00:30:39.936Z,14.39
2018-09-10T00:30:44.243Z,14.39
2018-09-10T00:30:48.431Z,14.39
2018-09-10T00:30:52.627Z,14.39
2018-09-10T00:30:56.972Z,14.4
2018-09-10T00:31:00.850Z,14.39
2018-09-10T00:31:04.938Z,14.38
2018-09-10T00:31:09.133Z,14.39
2018-09-10T00:31:13.431Z,14.39
2018-09-10T00:31:17.623Z,14.38
2018-09-10T00:31:21.813Z,14.38
2018-09-10T00:31:26.011Z,14.38
2018-09-10T00:31:29.890Z,14.39
2018-09-10T00:31:34.197Z,14.38
2018-09-10T00:31:38.396Z,14.38
2018-09-10T00:31:42.590Z,14.37
2018-09-10T00:31:46.780Z,14.37
2018-09-10T00:31:51.096Z,14.37
2018-09-10T00:31:55.287Z,14.37
2018-09-10T00:31:59.372Z,14.36
2018-09-10T00:32:03.351Z,14.37
2018-09-10T00:32:07.229Z,14.37
2018-09-10T00:32:11.427Z,14.37
2018-09-10T00:32:15.622Z,14.37
2018-09-10T00:32:19.923Z,14.36
2018-09-10T00:32:24.116Z,14.36
2018-09-10T00:32:28.467Z,14.35
2018-09-10T00:32:32.558Z,14.36
2018-09-10T00:32:36.656Z,14.36
2018-09-10T00:32:40.857Z,14.35
2018-09-10T00:32:45.163Z,14.36
2018-09-10T00:32:49.353Z,14.34
2018-09-10T00:32:53.555Z,14.35
2018-09-10T00:32:57.851Z,14.35
2018-09-10T00:33:02.043Z,14.35
2018-09-10T00:33:06.031Z,14.34
2018-09-10T00:33:10.224Z,14.35
2018-09-10T00:33:14.530Z,14.34
2018-09-10T00:33:18.722Z,14.35
2018-09-10T00:33:22.923Z,14.35
2018-09-10T00:33:27.009Z,14.35
2018-09-10T00:33:31.316Z,14.34
2018-09-10T00:33:35.615Z,14.34
2018-09-10T00:33:39.807Z,14.34
2018-09-10T00:33:43.902Z,14.34
2018-09-10T00:33:48.208Z,14.34
2018-09-10T00:33:52.418Z,14.34
2018-09-10T00:33:56.614Z,14.33
2018-09-10T00:34:00.593Z,14.34
2018-09-10T00:34:04.740Z,14.33
2018-09-10T00:34:08.722Z,14.34
2018-09-10T00:34:12.821Z,14.33
2018-09-10T00:34:17.022Z,14.33
2018-09-10T00:34:21.224Z,14.33
2018-09-10T00:34:25.427Z,14.32
2018-09-10T00:34:29.609Z,14.32
2018-09-10T00:34:33.818Z,14.33
2018-09-10T00:34:38.014Z,14.31
2018-09-10T00:34:42.313Z,14.33
2018-09-10T00:34:46.509Z,14.33
2018-09-10T00:34:50.817Z,14.32
2018-09-10T00:34:55.117Z,14.31
2018-09-10T00:34:59.203Z,14.32
2018-09-10T00:35:03.189Z,14.32
2018-09-10T00:35:07.386Z,14.31
2018-09-10T00:35:11.681Z,14.31
2018-09-10T00:35:15.764Z,14.32
2018-09-10T00:35:19.855Z,14.32
2018-09-10T00:35:24.153Z,14.31
2018-09-10T00:35:28.246Z,14.31
2018-09-10T00:35:32.442Z,14.3
2018-09-10T00:35:36.636Z,14.3
2018-09-10T00:35:40.723Z,14.31
2018-09-10T00:35:45.029Z,14.31
2018-09-10T00:35:49.115Z,14.3
2018-09-10T00:35:53.417Z,14.31
2018-09-10T00:35:57.613Z,14.3
2018-09-10T00:36:01.926Z,14.3
2018-09-10T00:36:05.904Z,14.3
2018-09-10T00:36:10.221Z,14.3
2018-09-10T00:36:14.323Z,14.3
2018-09-10T00:36:18.515Z,14.29
2018-09-10T00:36:22.709Z,14.3
2018-09-10T00:36:26.691Z,14.29
2018-09-10T00:36:30.988Z,14.29
2018-09-10T00:36:35.292Z,14.29
2018-09-10T00:36:39.487Z,14.29
2018-09-10T00:36:43.485Z,14.29
2018-09-10T00:36:47.790Z,14.29
2018-09-10T00:36:51.988Z,14.29
2018-09-10T00:36:56.294Z,14.28
2018-09-10T00:37:00.602Z,14.29
2018-09-10T00:37:04.802Z,14.28
2018-09-10T00:37:08.889Z,14.28
2018-09-10T00:37:13.187Z,14.27
2018-09-10T00:37:17.493Z,14.28
2018-09-10T00:37:21.794Z,14.28
2018-09-10T00:37:25.989Z,14.27
2018-09-10T00:37:30.187Z,14.27
2018-09-10T00:37:34.482Z,14.28
2018-09-10T00:37:38.784Z,14.26
2018-09-10T00:37:42.873Z,14.28
2018-09-10T00:37:46.957Z,14.27
2018-09-10T00:37:51.261Z,14.26
2018-09-10T00:37:55.456Z,14.26
2018-09-10T00:37:59.646Z,14.26
2018-09-10T00:38:03.624Z,14.26
2018-09-10T00:38:07.934Z,14.26
2018-09-10T00:38:12.229Z,14.26
2018-09-10T00:38:16.429Z,14.26
2018-09-10T00:38:20.517Z,14.26
2018-09-10T00:38:24.513Z,14.26
2018-09-10T00:38:28.762Z,14.26
2018-09-10T00:38:32.964Z,14.25
2018-09-10T00:38:37.265Z,14.26
2018-09-10T00:38:41.459Z,14.25
2018-09-10T00:38:45.655Z,14.26
2018-09-10T00:38:49.952Z,14.25
2018-09-10T00:38:54.260Z,14.25
2018-09-10T00:38:58.357Z,14.25
2018-09-10T00:39:02.563Z,14.25
2018-09-10T00:39:06.447Z,14.24
2018-09-10T00:39:10.537Z,14.24
2018-09-10T00:39:14.734Z,14.25
2018-09-10T00:39:18.933Z,14.25
2018-09-10T00:39:23.230Z,14.25
2018-09-10T00:39:27.112Z,14.25
2018-09-10T00:39:31.303Z,14.24
2018-09-10T00:39:35.387Z,14.24
2018-09-10T00:39:39.578Z,14.24
2018-09-10T00:39:43.778Z,14.24
2018-09-10T00:39:48.087Z,14.24
2018-09-10T00:39:52.394Z,14.24
2018-09-10T00:39:56.705Z,14.24
2018-09-10T00:40:01.009Z,14.24
2018-09-10T00:40:05.309Z,14.23
2018-09-10T00:40:09.511Z,14.23
2018-09-10T00:40:13.813Z,14.23
2018-09-10T00:40:18.010Z,14.22
2018-09-10T00:40:22.096Z,14.23
2018-09-10T00:40:26.183Z,14.22
2018-09-10T00:40:30.376Z,14.23
2018-09-10T00:40:34.585Z,14.22
2018-09-10T00:40:38.891Z,14.22
2018-09-10T00:40:42.873Z,14.23
2018-09-10T00:40:46.857Z,14.23
2018-09-10T00:40:51.052Z,14.22
2018-09-10T00:40:55.243Z,14.22
2018-09-10T00:40:59.558Z,14.22
2018-09-10T00:41:03.756Z,14.22
2018-09-10T00:41:08.052Z,14.22
2018-09-10T00:41:12.040Z,14.22
2018-09-10T00:41:16.136Z,14.22
2018-09-10T00:41:20.230Z,14.22
2018-09-10T00:41:24.338Z,14.22
2018-09-10T00:41:28.647Z,14.22
2018-09-10T00:41:32.849Z,14.23
2018-09-10T00:41:36.835Z,14.22
2018-09-10T00:41:41.027Z,14.22
2018-09-10T00:41:45.323Z,14.22
2018-09-10T00:41:49.523Z,14.21
2018-09-10T00:41:53.770Z,14.22
2018-09-10T00:41:58.080Z,14.22
2018-09-10T00:42:02.328Z,14.22
2018-09-10T00:42:06.418Z,14.22
2018-09-10T00:42:10.613Z,14.22
2018-09-10T00:42:14.602Z,14.22
2018-09-10T00:42:18.905Z,14.21
2018-09-10T00:42:23.216Z,14.22
2018-09-10T00:42:27.554Z,14.22
2018-09-10T00:42:31.647Z,14.22
2018-09-10T00:42:35.839Z,14.21
2018-09-10T00:42:40.043Z,14.21
2018-09-10T00:42:44.351Z,14.21
2018-09-10T00:42:48.667Z,14.21
2018-09-10T00:42:52.759Z,14.21
2018-09-10T00:42:56.953Z,14.22
2018-09-10T00:43:01.039Z,14.22
2018-09-10T00:43:05.490Z,14.21
2018-09-10T00:43:09.688Z,14.21
2018-09-10T00:43:13.883Z,14.22
2018-09-10T00:43:17.969Z,14.21
2018-09-10T00:43:22.284Z,14.22
2018-09-10T00:43:26.378Z,14.22
2018-09-10T00:43:30.735Z,14.22
2018-09-10T00:43:34.936Z,14.22
2018-09-10T00:43:39.233Z,14.22
2018-09-10T00:43:43.422Z,14.21
2018-09-10T00:43:47.722Z,14.21
2018-09-10T00:43:51.917Z,14.2
2018-09-10T00:43:56.213Z,14.21
2018-09-10T00:44:00.411Z,14.2
2018-09-10T00:44:04.391Z,14.21
2018-09-10T00:44:08.585Z,14.2
2018-09-10T00:44:12.776Z,14.2
2018-09-10T00:44:16.967Z,14.2
2018-09-10T00:44:21.291Z,14.2
2018-09-10T00:44:25.380Z,14.21
2018-09-10T00:44:29.577Z,14.2
2018-09-10T00:44:33.881Z,14.2
2018-09-10T00:44:37.979Z,14.19
2018-09-10T00:44:42.272Z,14.2
2018-09-10T00:44:46.475Z,14.2
2018-09-10T00:44:50.569Z,14.19
2018-09-10T00:44:54.873Z,14.19
2018-09-10T00:44:59.185Z,14.19
2018-09-10T00:45:03.494Z,14.19
2018-09-10T00:45:07.809Z,14.19
2018-09-10T00:45:11.797Z,14.19
2018-09-10T00:45:16.127Z,14.18
2018-09-10T00:45:20.329Z,14.18
2018-09-10T00:45:24.522Z,14.19
2018-09-10T00:45:28.607Z,14.19
2018-09-10T00:45:32.707Z,14.19
2018-09-10T00:45:36.898Z,14.19
2018-09-10T00:45:41.092Z,14.18
2018-09-10T00:45:45.392Z,14.18
2018-09-10T00:45:49.696Z,14.17
2018-09-10T00:45:53.894Z,14.17
2018-09-10T00:45:58.220Z,14.18
2018-09-10T00:46:02.418Z,14.18
2018-09-10T00:46:06.504Z,14.17
2018-09-10T00:46:10.697Z,14.17
2018-09-10T00:46:14.785Z,14.17
2018-09-10T00:46:18.980Z,14.18
2018-09-10T00:46:23.069Z,14.18
2018-09-10T00:46:27.375Z,14.17
2018-09-10T00:46:31.674Z,14.17
2018-09-10T00:46:35.777Z,14.18
2018-09-10T00:46:40.076Z,14.17
2018-09-10T00:46:44.275Z,14.17
2018-09-10T00:46:48.474Z,14.17
2018-09-10T00:46:52.781Z,14.17
2018-09-10T00:46:56.980Z,14.17
2018-09-10T00:47:01.336Z,14.17
2018-09-10T00:47:05.585Z,14.16
2018-09-10T00:47:09.784Z,14.17
2018-09-10T00:47:13.992Z,14.16
2018-09-10T00:47:18.294Z,14.16
2018-09-10T00:47:22.488Z,14.17
2018-09-10T00:47:26.690Z,14.17
2018-09-10T00:47:30.802Z,14.16
2018-09-10T00:47:35.110Z,14.16
2018-09-10T00:47:39.202Z,14.16
2018-09-10T00:47:43.401Z,14.16
2018-09-10T00:47:47.699Z,14.16
2018-09-10T00:47:52.019Z,14.17
2018-09-10T00:47:56.224Z,14.16
2018-09-10T00:48:00.417Z,14.17
2018-09-10T00:48:04.610Z,14.16
2018-09-10T00:48:08.697Z,14.17
2018-09-10T00:48:12.906Z,14.16
2018-09-10T00:48:17.000Z,14.16
2018-09-10T00:48:21.310Z,14.16
2018-09-10T00:48:25.509Z,14.16
2018-09-10T00:48:29.706Z,14.17
2018-09-10T00:48:34.020Z,14.17
2018-09-10T00:48:38.228Z,14.16
2018-09-10T00:48:42.429Z,14.17
2018-09-10T00:48:46.626Z,14.16
2018-09-10T00:48:50.825Z,14.17
2018-09-10T00:48:55.024Z,14.16
2018-09-10T00:48:59.015Z,14.17
2018-09-10T00:49:03.318Z,14.17
2018-09-10T00:49:07.523Z,14.16
2018-09-10T00:49:11.618Z,14.16
2018-09-10T00:49:15.811Z,14.16
2018-09-10T00:49:19.797Z,14.17
2018-09-10T00:49:24.096Z,14.16
2018-09-10T00:49:28.187Z,14.17
2018-09-10T00:49:32.380Z,14.17
2018-09-10T00:49:36.483Z,14.16
2018-09-10T00:49:40.813Z,14.17
2018-09-10T00:49:45.115Z,14.17
2018-09-10T00:49:49.345Z,14.17
2018-09-10T00:49:53.646Z,14.17
2018-09-10T00:49:57.842Z,14.17
2018-09-10T00:50:02.209Z,14.17
2018-09-10T00:50:06.191Z,14.17
2018-09-10T00:50:10.389Z,14.17
2018-09-10T00:50:14.474Z,14.17
2018-09-10T00:50:18.781Z,14.17
2018-09-10T00:50:22.865Z,14.18
2018-09-10T00:50:27.173Z,14.17
2018-09-10T00:50:31.370Z,14.17
2018-09-10T00:50:35.668Z,14.18
2018-09-10T00:50:39.974Z,14.18
2018-09-10T00:50:44.276Z,14.17
2018-09-10T00:50:48.624Z,14.18
2018-09-10T00:50:52.813Z,14.18
2018-09-10T00:50:57.121Z,14.18
2018-09-10T00:51:01.417Z,14.18
2018-09-10T00:51:05.299Z,14.18
2018-09-10T00:51:09.386Z,14.19
2018-09-10T00:51:13.731Z,14.18
2018-09-10T00:51:17.832Z,14.18
2018-09-10T00:51:22.133Z,14.19
2018-09-10T00:51:26.218Z,14.19
2018-09-10T00:51:30.304Z,14.18
2018-09-10T00:51:34.401Z,14.19
2018-09-10T00:51:38.605Z,14.19
2018-09-10T00:51:42.693Z,14.18
2018-09-10T00:51:46.790Z,14.19
2018-09-10T00:51:50.767Z,14.2
2018-09-10T00:51:54.853Z,14.19
2018-09-10T00:51:58.947Z,14.2
2018-09-10T00:52:03.409Z,14.2
2018-09-10T00:52:07.495Z,14.19
2018-09-10T00:52:11.583Z,14.19
2018-09-10T00:52:15.885Z,14.2
2018-09-10T00:52:19.978Z,14.2
2018-09-10T00:52:24.180Z,14.19
2018-09-10T00:52:28.478Z,14.21
2018-09-10T00:52:32.676Z,14.21
2018-09-10T00:52:36.656Z,14.21
2018-09-10T00:52:40.852Z,14.21
2018-09-10T00:52:45.043Z,14.21
2018-09-10T00:52:49.341Z,14.21
2018-09-10T00:52:53.659Z,14.21
2018-09-10T00:52:57.742Z,14.21
2018-09-10T00:53:01.943Z,14.22
2018-09-10T00:53:06.336Z,14.22
2018-09-10T00:53:10.644Z,14.22
2018-09-10T00:53:14.842Z,14.22
2018-09-10T00:53:19.150Z,14.23
2018-09-10T00:53:23.459Z,14.22
2018-09-10T00:53:27.559Z,14.23
2018-09-10T00:53:31.854Z,14.22
2018-09-10T00:53:35.938Z,14.23
2018-09-10T00:53:40.237Z,14.23
2018-09-10T00:53:44.433Z,14.23
2018-09-10T00:53:48.630Z,14.23
2018-09-10T00:53:52.823Z,14.23
2018-09-10T00:53:57.131Z,14.24
2018-09-10T00:54:01.329Z,14.24